Farmers, Nebraska
Current Conditions -  °F | °C
As of 11:35 PM on Saturday 22 Nov 2014 (Local Time) from KHDE Reporting Station
Overcast Overcast  
Wind Chill: 50°   Ceiling: 900
Heat Index: 50°   Visibility: 7mi
Dew Point: 47°   Wind: 9mph
Humidity: 89%   Direction: 200°SSW
Pressure: 29.51"   Gusts: NA
Location:  40.1338°N, 99.0101°W
Report Text: KHDE 230535Z AUTO 20008KT 7SM OVC009 10/09 A2951 RMK AO2 T01020085
Loading
Personal Weather Stations






























Interactive Weather Map New forecast layout! Learn more

10-Day Weather Forecast

Advertisements
Track Severe Weather on mobile